Latest Weather Observations for Fowlers Gap

IDN60801

Issued at 10:02 pm EST Thursday 30 July 2015 (issued every 30 minutes, with the page automatically refreshed every 10 minutes)

About weather observations | Map of weather stations | Latest weather observations for NSW | Other Formats
Station Details ID: 046128 Name: FOWLERS GAP AWS Lat: -31.09 Lon: 141.70 Height: 181.0 m
Data from the previous 72 hours. | See also: Recent months at Fowlers Gap
Date/Time
EST
Temp
°C
App
Temp
°C
Dew
Point
Rel
Hum
%
Delta-T
°C
Wind Press
QNH
hPa
Press
MSL
hPa
Rain
since 9 am
mm
Dir
 
Spd
km/h
Gust
km/h
Spd
kts
Gust
kts
30/10:00pm 12.1 7.5 -0.7 41 5.2 NW 13 15 7 8 1021.9 1022.1 0.0
30/09:30pm 12.0 8.2 -0.5 42 5.1 W 9 13 5 7 1021.8 1021.9 0.0
30/09:00pm 13.4 9.9 -1.0 37 5.9 NW 7 13 4 7 1021.5 1021.6 0.0
30/08:30pm 13.2 9.4 -0.8 38 5.8 WNW 9 13 5 7 1021.5 1021.6 0.0
30/08:00pm 14.5 9.5 -1.2 34 6.5 NW 15 19 8 10 1021.0 1021.1 0.0
30/07:30pm 14.9 10.7 -0.8 34 6.6 NW 11 17 6 9 1021.2 1021.3 0.0
30/07:00pm 15.5 11.3 -1.1 32 6.9 NW 11 17 6 9 1021.3 1021.4 0.0
30/06:30pm 16.1 11.4 -1.5 30 7.3 NW 13 20 7 11 1021.0 1021.1 0.0
30/06:00pm 16.8 11.8 -0.9 30 7.5 NW 15 20 8 11 1020.6 1020.8 0.0
30/05:30pm 17.6 12.2 -1.1 28 8.0 NW 17 24 9 13 1020.6 1020.8 0.0
30/05:00pm 17.9 11.9 -1.9 26 8.3 NNW 20 28 11 15 1020.7 1020.9 0.0
30/04:30pm 18.0 12.0 -1.8 26 8.4 NW 20 30 11 16 1021.0 1021.1 0.0
30/04:00pm 18.1 12.3 -1.7 26 8.4 NW 19 26 10 14 1020.7 1020.9 0.0
30/03:30pm 18.5 11.8 -1.3 26 8.5 NW 24 32 13 17 1021.1 1021.2 0.0
30/03:00pm 17.9 11.6 -1.3 27 8.2 NNW 22 32 12 17 1021.3 1021.4 0.0
30/02:30pm 18.5 11.8 -0.8 27 8.4 NW 24 33 13 18 1021.8 1021.9 0.0
30/02:00pm 17.5 10.9 -0.2 30 7.7 NNW 24 32 13 17 1022.0 1022.2 0.0
30/01:30pm 17.4 11.1 -0.8 29 7.8 NW 22 32 12 17 1022.7 1022.9 0.0
30/01:00pm 16.4 10.1 1.3 36 6.7 NW 24 32 13 17 1023.8 1024.0 0.0
30/12:30pm 15.7 9.4 1.8 39 6.2 NW 24 33 13 18 1024.2 1024.4 0.0
30/12:00pm 15.4 10.0 2.2 41 5.9 NNW 20 30 11 16 1024.6 1024.8 0.0
30/11:30am 14.6 8.5 2.5 44 5.4 NNW 24 32 13 17 1025.1 1025.3 0.0
30/11:00am 14.0 7.9 2.9 47 5.0 NNW 24 33 13 18 1025.5 1025.7 0.0
30/10:30am 13.1 7.1 3.2 51 4.5 NNW 24 35 13 19 1025.8 1026.0 0.0
30/10:00am 12.3 6.6 3.0 53 4.1 NNW 22 30 12 16 1026.0 1026.2 0.0
30/09:30am 11.0 6.0 3.5 60 3.3 NNW 19 24 10 13 1026.0 1026.2 0.0
30/09:00am 9.8 6.3 3.3 64 2.8 NNW 11 19 6 10 1025.6 1025.8 0.0
30/08:30am 8.1 4.1 2.6 68 2.3 NNW 13 17 7 9 1025.6 1025.8 0.0
30/08:00am 7.2 3.1 2.5 72 2.0 NNW 13 15 7 8 1025.3 1025.5 0.0
30/07:30am 7.1 3.1 2.8 74 1.8 N 13 19 7 10 1025.0 1025.2 0.0
30/07:00am 7.5 2.7 2.6 71 2.1 N 17 20 9 11 1024.9 1025.1 0.0
30/06:30am 5.7 1.6 2.0 77 1.5 N 13 17 7 9 1025.0 1025.2 0.0
30/06:00am 5.7 1.5 1.8 76 1.6 NNW 13 15 7 8 1024.9 1025.1 0.0
30/05:30am 6.0 2.3 2.1 76 1.6 NNW 11 13 6 7 1025.1 1025.3 0.0
30/05:00am 5.2 1.5 2.2 81 1.2 NNW 11 15 6 8 1025.3 1025.5 0.0
30/04:30am 1.6 -1.6 -0.6 85 0.8 NNW 6 7 3 4 1025.5 1025.7 0.0
30/04:00am 1.5 -1.8 -0.9 84 0.9 W 6 7 3 4 1025.6 1025.8 0.0
30/03:30am 1.5 -1.0 -1.1 83 0.9 W 2 7 1 4 1025.8 1026.0 0.0
30/03:00am 1.6 -0.9 -1.0 83 0.9 WNW 2 7 1 4 1026.3 1026.5 0.0
30/02:30am 1.0 -1.2 -1.2 85 0.8 CALM 0 4 0 2 1026.8 1027.0 0.0
30/02:00am 1.3 -0.8 -1.1 84 0.9 CALM 0 0 0 0 1027.0 1027.2 0.0
30/01:30am 1.7 -1.5 -0.5 85 0.8 SW 6 9 3 5 1027.5 1027.7 0.0
30/01:00am 1.6 -0.5 -1.0 83 0.9 CALM 0 0 0 0 1027.6 1027.8 0.0
30/12:30am 2.1 0.0 -0.5 83 1.0 CALM 0 0 0 0 1028.0 1028.2 0.0
30/12:00am 2.5 0.4 -0.6 80 1.1 CALM 0 0 0 0 1028.2 1028.4 0.0
 
Date/Time
EST
Temp
°C
App
Temp
°C
Dew
Point
Rel
Hum
%
Delta-T
°C
Wind Press
QNH
hPa
Press
MSL
hPa
Rain
since 9 am
mm
Dir
 
Spd
km/h
Gust
km/h
Spd
kts
Gust
kts
29/11:30pm 2.8 0.7 -0.5 79 1.2 CALM 0 0 0 0 1028.4 1028.6 0.0
29/11:00pm 3.5 1.5 -0.1 77 1.3 CALM 0 0 0 0 1028.5 1028.7 0.0
29/10:30pm 4.6 2.7 0.6 75 1.6 CALM 0 0 0 0 1028.7 1028.9 0.0
29/10:00pm 5.3 3.4 0.7 72 1.8 CALM 0 0 0 0 1028.9 1029.1 0.0
29/09:30pm 6.7 3.8 1.4 69 2.2 WSW 6 7 3 4 1029.1 1029.3 0.0
29/09:00pm 7.1 5.3 1.4 67 2.3 CALM 0 0 0 0 1029.0 1029.2 0.0
29/08:30pm 8.6 5.2 2.0 63 2.8 NNE 9 11 5 6 1028.7 1028.9 0.0
29/08:00pm 9.2 7.5 2.1 61 3.0 CALM 0 4 0 2 1028.9 1029.1 0.0
29/07:30pm 10.1 8.1 2.2 58 3.4 NNE 2 6 1 3 1028.9 1029.1 0.0
29/07:00pm 10.7 7.9 2.3 56 3.6 NE 6 7 3 4 1028.7 1028.9 0.0
29/06:30pm 11.1 9.0 1.6 52 4.0 NE 2 6 1 3 1028.8 1029.0 0.0
29/06:00pm 12.4 9.0 2.0 49 4.5 ENE 9 13 5 7 1028.4 1028.6 0.0
29/05:30pm 13.1 10.2 1.5 45 5.0 ENE 6 9 3 5 1028.3 1028.5 0.0
29/05:00pm 13.6 9.7 1.3 43 5.3 NE 11 15 6 8 1028.1 1028.3 0.0
29/04:30pm 13.9 10.7 0.9 41 5.6 N 7 13 4 7 1028.9 1029.1 0.0
29/04:00pm 14.2 10.7 1.5 42 5.5 NNE 9 13 5 7 1028.6 1028.8 0.0
29/03:30pm 14.1 9.8 0.7 40 5.8 N 13 17 7 9 1028.8 1029.0 0.0
29/03:00pm 13.7 10.1 0.7 41 5.5 N 9 19 5 10 1029.1 1029.3 0.0
29/02:30pm 13.7 10.6 1.4 43 5.3 NE 7 11 4 6 1029.7 1029.9 0.0
29/02:00pm 13.7 9.5 1.4 43 5.3 NNE 13 15 7 8 1029.6 1029.8 0.0
29/01:30pm 13.8 11.3 1.5 43 5.4 NE 4 11 2 6 1030.5 1030.7 0.0
29/01:00pm 13.7 10.7 1.7 44 5.2 NNW 7 13 4 7 1031.4 1031.7 0.0
29/12:30pm 13.4 10.0 1.7 45 5.1 WNW 9 15 5 8 1032.5 1032.7 0.0
29/12:00pm 12.9 9.6 2.2 48 4.7 NE 9 17 5 9 1032.8 1033.0 0.0
29/11:30am 12.1 8.4 2.3 51 4.3 NNE 11 19 6 10 1033.2 1033.4 0.0
29/11:00am 11.5 8.2 2.5 54 3.9 NE 9 13 5 7 1033.6 1033.8 0.0
29/10:30am 10.2 6.2 2.6 59 3.3 ENE 13 15 7 8 1033.2 1033.4 0.0
29/10:00am 9.3 5.6 2.4 62 2.9 ENE 11 17 6 9 1033.3 1033.5 0.0
29/09:30am 8.1 4.0 2.4 67 2.4 ENE 13 15 7 8 1033.7 1033.9 0.0
29/09:00am 5.2 3.4 1.0 74 1.6 CALM 0 0 0 0 1034.0 1034.2 0.0
29/08:30am 2.2 0.2 -0.2 84 0.9 CALM 0 0 0 0 1034.0 1034.2 0.0
29/08:00am 0.5 -1.7 -1.3 88 0.7 CALM 0 0 0 0 1033.8 1034.0 0.0
29/07:30am 0.3 -1.9 -1.4 88 0.6 CALM 0 0 0 0 1033.3 1033.5 0.0
29/07:00am 0.7 -1.5 -1.2 87 0.7 CALM 0 0 0 0 1033.0 1033.2 0.0
29/06:30am 0.9 -1.2 -1.0 87 0.7 CALM 0 0 0 0 1033.0 1033.2 0.0
29/06:00am 1.1 -1.0 -0.8 87 0.7 CALM 0 0 0 0 1032.7 1032.9 0.0
29/05:30am 0.9 -1.2 -0.9 88 0.6 CALM 0 0 0 0 1032.7 1032.9 0.0
29/05:00am 0.7 -1.5 -1.2 87 0.7 CALM 0 0 0 0 1032.7 1032.9 0.0
29/04:30am 0.8 -1.3 -1.0 88 0.6 CALM 0 0 0 0 1032.8 1033.0 0.0
29/04:00am 0.6 -1.6 -1.5 86 0.8 CALM 0 0 0 0 1033.3 1033.5 0.0
29/03:30am 0.8 -1.3 -1.1 87 0.7 CALM 0 0 0 0 1033.2 1033.4 0.0
29/03:00am 1.2 -0.9 -0.9 86 0.7 CALM 0 0 0 0 1033.6 1033.8 0.0
29/02:30am 1.5 -0.6 -0.9 84 0.9 CALM 0 0 0 0 1033.8 1034.0 0.0
29/02:00am 2.3 0.3 -0.1 84 0.9 CALM 0 0 0 0 1033.9 1034.1 0.0
29/01:30am 2.9 0.9 0.0 81 1.1 CALM 0 0 0 0 1034.0 1034.2 0.0
29/01:00am 3.9 2.0 0.8 80 1.2 CALM 0 0 0 0 1034.3 1034.5 0.0
29/12:30am 4.1 2.2 0.8 79 1.3 CALM 0 0 0 0 1034.0 1034.2 0.0
29/12:00am 3.9 2.0 0.4 78 1.3 CALM 0 0 0 0 1034.0 1034.2 0.0
 
Date/Time
EST
Temp
°C
App
Temp
°C
Dew
Point
Rel
Hum
%
Delta-T
°C
Wind Press
QNH
hPa
Press
MSL
hPa
Rain
since 9 am
mm
Dir
 
Spd
km/h
Gust
km/h
Spd
kts
Gust
kts
28/11:30pm 3.9 1.9 0.2 77 1.4 CALM 0 0 0 0 1034.2 1034.4 0.0
28/11:00pm 4.4 2.5 0.6 76 1.5 CALM 0 0 0 0 1034.5 1034.7 0.0
28/10:30pm 5.3 2.2 1.2 75 1.6 SW 7 9 4 5 1034.9 1035.1 0.0
28/10:00pm 5.9 2.4 1.4 73 1.8 SSE 9 11 5 6 1035.1 1035.3 0.0
28/09:30pm 6.0 3.8 1.2 71 1.9 WSW 2 7 1 4 1034.9 1035.1 0.0
28/09:00pm 6.8 3.3 1.5 69 2.1 S 9 11 5 6 1035.0 1035.2 0.0
28/08:30pm 6.8 3.3 1.3 68 2.2 S 9 9 5 5 1034.7 1034.9 0.0
28/08:00pm 7.7 4.2 1.5 65 2.5 SSE 9 11 5 6 1034.5 1034.7 0.0
28/07:30pm 8.6 5.7 1.5 61 2.9 S 6 7 3 4 1034.4 1034.6 0.0
28/07:00pm 9.6 7.1 1.5 57 3.4 SSE 4 7 2 4 1033.9 1034.1 0.0
28/06:30pm 11.2 7.8 1.7 52 4.1 E 9 11 5 6 1033.5 1033.7 0.0
28/06:00pm 12.3 8.9 1.6 48 4.6 E 9 15 5 8 1033.6 1033.8 0.0
28/05:30pm 13.1 8.5 1.8 46 4.9 SE 15 20 8 11 1033.5 1033.7 0.0
28/05:00pm 13.5 9.3 1.8 45 5.1 SE 13 20 7 11 1033.5 1033.7 0.0
28/04:30pm 13.7 9.1 1.4 43 5.3 SE 15 20 8 11 1033.6 1033.8 0.0
28/04:00pm 14.1 9.5 1.7 43 5.4 ESE 15 20 8 11 1033.7 1033.9 0.0
28/03:30pm 13.9 9.7 1.9 44 5.3 SE 13 20 7 11 1033.8 1034.0 0.0
28/03:00pm 13.8 9.6 1.8 44 5.2 E 13 17 7 9 1034.0 1034.2 0.0
28/02:30pm 13.5 9.3 1.8 45 5.1 SSE 13 20 7 11 1034.2 1034.4 0.0
28/02:00pm 13.5 9.7 1.8 45 5.1 E 11 20 6 11 1034.5 1034.7 0.0
28/01:30pm 13.3 9.0 1.3 44 5.2 SE 13 20 7 11 1034.9 1035.1 0.0
28/01:00pm 13.0 8.5 2.0 47 4.8 SE 15 20 8 11 1035.5 1035.7 0.0
28/12:30pm 12.2 7.6 1.8 49 4.5 ESE 15 20 8 11 1036.2 1036.5 0.0
28/12:00pm 12.1 7.9 1.7 49 4.4 SE 13 22 7 12 1036.9 1037.2 0.0
28/11:30am 11.7 7.1 1.6 50 4.3 SE 15 26 8 14 1037.7 1038.0 0.0
28/11:00am 11.1 6.1 1.4 51 4.1 SE 17 26 9 14 1038.3 1038.5 0.0
28/10:30am 10.7 5.4 2.0 55 3.7 ESE 19 24 10 13 1038.1 1038.4 0.0
28/10:00am 10.2 6.1 2.1 57 3.4 SE 13 17 7 9 1038.4 1038.6 0.0
28/09:30am 6.9 5.1 1.2 67 2.3 CALM 0 0 0 0 1038.5 1038.7 0.0
28/09:00am 4.7 2.8 0.3 73 1.7 CALM 0 0 0 0 1038.1 1038.4 0.0
28/08:30am 2.6 0.6 -0.3 81 1.1 CALM 0 2 0 1 1037.9 1038.2 0.0
28/08:00am 0.9 -2.0 -1.0 87 0.7 W 4 6 2 3 1037.7 1038.0 0.0
28/07:30am -0.3 -3.7 -1.7 90 0.5 W 6 7 3 4 1037.2 1037.5 0.0
28/07:00am -0.2 -3.8 -1.8 89 0.5 NW 7 9 4 5 1036.7 1037.0 0.0
28/06:30am -0.3 -3.7 -2.2 87 0.6 NW 6 9 3 5 1036.3 1036.6 0.0
28/06:00am 0.0 -3.4 -2.2 85 0.8 W 6 7 3 4 1036.1 1036.4 0.0
28/05:30am 1.0 -2.8 -1.1 86 0.7 WNW 9 9 5 5 1036.0 1036.3 0.0
28/05:00am 1.0 -2.9 -1.2 85 0.8 WNW 9 11 5 6 1035.7 1035.9 0.0
28/04:30am 1.0 -2.3 -1.2 85 0.8 W 6 6 3 3 1035.5 1035.7 0.0
28/04:00am 1.6 -1.6 -0.8 84 0.9 SW 6 7 3 4 1035.3 1035.5 0.0
28/03:30am 1.4 -1.9 -1.2 83 0.9 SSW 6 9 3 5 1035.2 1035.4 0.0
28/03:00am 1.0 -1.2 -1.6 83 0.9 CALM 0 0 0 0 1035.4 1035.6 0.0
28/02:30am 1.5 -1.8 -1.6 80 1.1 W 6 9 3 5 1035.5 1035.7 0.0
28/02:00am 2.4 -1.0 -0.9 79 1.2 WNW 7 9 4 5 1035.5 1035.7 0.0
28/01:30am 2.3 0.2 -1.0 79 1.2 CALM 0 0 0 0 1035.6 1035.8 0.0
28/01:00am 2.8 -1.0 -0.6 78 1.2 SW 9 11 5 6 1035.4 1035.6 0.0
28/12:30am 2.9 -0.4 -0.9 76 1.4 WNW 6 9 3 5 1035.5 1035.7 0.0
28/12:00am 3.0 -0.2 -0.8 76 1.4 SW 6 7 3 4 1035.4 1035.6 0.0
 
Date/Time
EST
Temp
°C
App
Temp
°C
Dew
Point
Rel
Hum
%
Delta-T
°C
Wind Press
QNH
hPa
Press
MSL
hPa
Rain
since 9 am
mm
Dir
 
Spd
km/h
Gust
km/h
Spd
kts
Gust
kts
27/11:30pm 3.3 0.1 -0.7 75 1.5 SW 6 7 3 4 1035.5 1035.7 0.0
27/11:00pm 3.9 1.8 -0.5 73 1.6 CALM 0 6 0 3 1035.7 1035.9 0.0
27/10:30pm 4.4 0.6 -0.4 71 1.8 S 9 9 5 5 1035.8 1036.1 0.0

Other Formats:

Comma delimited format used in spreadsheet applications
http://www.bom.gov.au/fwo/IDN60801/IDN60801.94686.axf

JavaScript Object Notation format (JSON) in row-major order
http://www.bom.gov.au/fwo/IDN60801/IDN60801.94686.json